Terminal Aerodrome Forecast
Issued by NWS

Home | Current Version | Previous Version | Text Only | Print | Product List | Glossary On
Versions: 1 2 3 4 5 6 7 8 9 10 11 12 13 14 15 16 17 18 19 20 21 22 23 24 25 26 27 28 29 30 31 32 33 34 35
470
FTUS43 KMKX 241736
TAFUES
TAF
KUES 241736Z 2418/2518 20010G15KT P6SM SCT090
     FM242000 23008KT P6SM VCTS BKN090CB
     FM250300 VRB03KT P6SM BKN250
     FM250900 VRB03KT 3SM BR BKN040
     FM251500 12004KT P6SM BKN120=

USA.gov is the U.S. government's official web portal to all federal, state and local government web resources and services.